createdAt,value
2018-04-04T00:01:46.126Z,63.20
2018-04-04T00:04:15.145Z,64.40
2018-04-04T00:06:43.386Z,63.80
2018-04-04T00:09:11.654Z,64.90
2018-04-04T00:11:39.903Z,65.30
2018-04-04T00:14:08.147Z,65.50
2018-04-04T00:16:36.403Z,66.50
2018-04-04T00:19:05.415Z,66.20
2018-04-04T00:21:33.720Z,66.10
2018-04-04T00:24:01.907Z,66.70
2018-04-04T00:26:30.154Z,66.30
2018-04-04T00:28:58.421Z,66.70
2018-04-04T00:31:26.678Z,66.30
2018-04-04T00:33:55.689Z,67.70
2018-04-04T00:36:23.946Z,67.70
2018-04-04T00:38:52.958Z,68.70
2018-04-04T00:41:21.220Z,68.90
2018-04-04T00:43:49.465Z,69.20
2018-04-04T00:46:17.718Z,68.90
2018-04-04T00:48:45.973Z,69.90
2018-04-04T00:51:14.226Z,70.70
2018-04-04T00:53:42.477Z,70.60
2018-04-04T00:56:10.937Z,71.00
2018-04-04T00:58:39.192Z,72.40
2018-04-04T01:01:07.435Z,72.70
2018-04-04T01:03:35.698Z,76.30
2018-04-04T01:06:04.710Z,76.40
2018-04-04T01:08:32.967Z,76.30
2018-04-04T01:11:01.974Z,78.90
2018-04-04T01:13:30.226Z,79.20
2018-04-04T01:15:59.240Z,80.60
2018-04-04T01:18:27.492Z,80.60
2018-04-04T01:20:56.509Z,87.20
2018-04-04T01:23:24.754Z,87.20
2018-04-04T01:25:52.998Z,90.00
2018-04-04T01:28:21.250Z,92.10
2018-04-04T01:30:49.493Z,93.20
2018-04-04T01:33:18.510Z,95.40
2018-04-04T01:35:46.757Z,95.40
2018-04-04T01:38:15.770Z,96.40
2018-04-04T01:40:44.018Z,96.40
2018-04-04T01:43:13.039Z,97.60
2018-04-04T01:45:41.282Z,97.60
2018-04-04T01:48:09.581Z,97.70
2018-04-04T01:50:37.788Z,98.20
2018-04-04T01:53:06.054Z,98.40
2018-04-04T01:55:34.305Z,98.50
2018-04-04T01:58:03.321Z,99.90
2018-04-04T02:00:31.570Z,99.90
2018-04-04T02:03:00.579Z,99.90
2018-04-04T02:05:28.825Z,99.90
2018-04-04T02:07:57.071Z,99.90
2018-04-04T02:10:25.326Z,99.90
2018-04-04T02:12:53.573Z,99.90
2018-04-04T02:15:21.830Z,99.90
2018-04-04T02:17:50.076Z,99.90
2018-04-04T02:20:18.335Z,99.90
2018-04-04T02:22:46.584Z,99.90
2018-04-04T02:25:14.839Z,99.90
2018-04-04T02:27:43.853Z,99.90
2018-04-04T02:30:12.129Z,99.90
2018-04-04T02:32:40.380Z,99.90
2018-04-04T02:35:09.399Z,99.90
2018-04-04T02:37:37.651Z,99.90
2018-04-04T02:40:06.667Z,99.90
2018-04-04T02:42:34.922Z,99.90
2018-04-04T02:45:03.936Z,99.90
2018-04-04T02:47:32.191Z,99.90
2018-04-04T02:50:01.203Z,99.90
2018-04-04T02:52:29.450Z,99.90
2018-04-04T02:54:58.465Z,99.90
2018-04-04T02:57:26.720Z,99.90
2018-04-04T02:59:55.730Z,99.90
2018-04-04T03:02:23.989Z,99.90
2018-04-04T03:04:53.011Z,99.90
2018-04-04T03:07:21.263Z,99.90
2018-04-04T03:09:49.518Z,99.90
2018-04-04T03:12:17.769Z,99.90
2018-04-04T03:14:46.021Z,99.90
2018-04-04T03:17:14.266Z,99.90
2018-04-04T03:19:43.291Z,99.90
2018-04-04T03:22:11.534Z,99.90
2018-04-04T03:24:40.554Z,99.90
2018-04-04T03:27:08.800Z,99.90
2018-04-04T03:29:37.055Z,99.90
2018-04-04T03:32:05.305Z,99.90
2018-04-04T03:34:34.340Z,99.90
2018-04-04T03:37:03.350Z,99.90
2018-04-04T03:39:31.593Z,99.90
2018-04-04T03:41:59.841Z,99.90
2018-04-04T03:44:28.101Z,99.90
2018-04-04T03:46:56.369Z,99.90
2018-04-04T03:49:24.616Z,99.90
2018-04-04T03:51:53.633Z,99.90
2018-04-04T03:54:21.893Z,99.90
2018-04-04T03:56:50.158Z,99.90
2018-04-04T03:59:19.177Z,99.90
2018-04-04T04:01:47.434Z,99.90
2018-04-04T04:04:16.446Z,99.90
2018-04-04T04:06:44.704Z,99.90
2018-04-04T04:09:12.958Z,99.90
2018-04-04T04:11:41.215Z,99.90
2018-04-04T04:14:09.458Z,99.90
2018-04-04T04:16:37.714Z,99.90
2018-04-04T04:19:05.959Z,99.90
2018-04-04T04:21:34.217Z,99.90
2018-04-04T04:24:02.465Z,99.90
2018-04-04T04:26:30.718Z,99.90
2018-04-04T04:28:58.954Z,99.90
2018-04-04T04:31:27.209Z,99.90
2018-04-04T04:33:55.457Z,99.90
2018-04-04T04:36:23.706Z,99.90
2018-04-04T04:38:51.963Z,99.90
2018-04-04T04:41:20.204Z,99.90
2018-04-04T04:43:48.457Z,99.90
2018-04-04T04:46:16.710Z,99.90
2018-04-04T04:48:44.966Z,99.90
2018-04-04T04:51:13.978Z,99.90
2018-04-04T04:53:42.232Z,99.90
2018-04-04T04:56:11.249Z,99.90
2018-04-04T04:58:39.506Z,99.90
2018-04-04T05:01:08.522Z,99.90
2018-04-04T05:03:36.773Z,99.90
2018-04-04T05:06:05.784Z,99.90
2018-04-04T05:08:34.033Z,99.90
2018-04-04T05:11:02.317Z,99.90
2018-04-04T05:13:30.562Z,99.90
2018-04-04T05:15:58.813Z,99.90
2018-04-04T05:18:27.065Z,99.90
2018-04-04T05:20:55.314Z,99.90
2018-04-04T05:23:23.566Z,99.90
2018-04-04T05:25:51.823Z,99.90
2018-04-04T05:28:20.077Z,99.90
2018-04-04T05:30:48.321Z,99.90
2018-04-04T05:33:17.346Z,99.90
2018-04-04T05:35:45.592Z,99.90
2018-04-04T05:38:14.610Z,99.90
2018-04-04T05:40:42.856Z,99.90
2018-04-04T05:43:11.153Z,99.90
2018-04-04T05:45:39.357Z,99.90
2018-04-04T05:48:07.605Z,99.90
2018-04-04T05:50:35.867Z,99.90
2018-04-04T05:53:04.874Z,99.90
2018-04-04T05:55:33.131Z,99.90
2018-04-04T05:58:07.731Z,99.90
2018-04-04T06:00:35.984Z,99.90
2018-04-04T06:03:04.236Z,99.90
2018-04-04T06:05:32.486Z,99.90
2018-04-04T06:08:01.494Z,99.90
2018-04-04T06:10:29.749Z,99.90
2018-04-04T06:12:58.758Z,99.90
2018-04-04T06:15:27.017Z,99.90
2018-04-04T06:17:56.033Z,99.90
2018-04-04T06:20:24.293Z,99.90
2018-04-04T06:22:53.300Z,99.90
2018-04-04T06:25:21.560Z,99.90
2018-04-04T06:27:50.576Z,99.90
2018-04-04T06:30:18.834Z,99.90
2018-04-04T06:32:47.835Z,99.90
2018-04-04T06:35:16.086Z,99.90
2018-04-04T06:37:44.340Z,99.90
2018-04-04T06:40:12.590Z,99.90
2018-04-04T06:42:40.838Z,99.90
2018-04-04T06:45:09.083Z,99.90
2018-04-04T06:47:37.338Z,99.90
2018-04-04T06:50:05.597Z,99.90
2018-04-04T06:52:33.849Z,99.90
2018-04-04T06:55:02.107Z,99.90
2018-04-04T06:57:31.117Z,99.90
2018-04-04T06:59:59.365Z,99.90
2018-04-04T07:02:28.484Z,99.90
2018-04-04T07:04:56.737Z,99.90
2018-04-04T07:07:25.820Z,99.90
2018-04-04T07:09:53.997Z,99.90
2018-04-04T07:12:22.252Z,99.90
2018-04-04T07:14:50.498Z,99.90
2018-04-04T07:17:18.750Z,99.90
2018-04-04T07:19:46.998Z,99.90
2018-04-04T07:22:15.254Z,99.90
2018-04-04T07:24:43.506Z,99.90
2018-04-04T07:27:11.753Z,99.90
2018-04-04T07:29:40.000Z,99.90
2018-04-04T07:32:09.021Z,99.90
2018-04-04T07:34:37.268Z,99.90
2018-04-04T07:37:05.521Z,99.90
2018-04-04T07:39:33.777Z,99.90
2018-04-04T07:42:02.027Z,99.90
2018-04-04T07:44:30.269Z,99.90
2018-04-04T07:46:58.526Z,99.90
2018-04-04T07:49:26.784Z,99.90
2018-04-04T07:51:55.129Z,99.90
2018-04-04T07:54:23.387Z,99.90
2018-04-04T07:56:52.414Z,99.90
2018-04-04T07:59:20.674Z,99.90
2018-04-04T08:01:48.925Z,99.90
2018-04-04T08:04:17.178Z,99.90
2018-04-04T08:06:45.429Z,99.90
2018-04-04T08:09:13.686Z,99.90
2018-04-04T08:11:41.952Z,99.90
2018-04-04T08:14:10.252Z,99.90
2018-04-04T08:16:39.221Z,99.90
2018-04-04T08:19:07.486Z,99.90
2018-04-04T08:21:36.493Z,99.90
2018-04-04T08:24:04.742Z,99.90
2018-04-04T08:26:33.771Z,99.60
2018-04-04T08:29:02.017Z,99.60
2018-04-04T08:31:31.033Z,99.90
2018-04-04T08:33:59.282Z,99.90
2018-04-04T08:36:28.307Z,98.50
2018-04-04T08:38:56.549Z,98.50
2018-04-04T08:41:24.807Z,98.70
2018-04-04T08:43:53.053Z,98.60
2018-04-04T08:46:21.312Z,98.50
2018-04-04T08:48:49.558Z,98.40
2018-04-04T08:51:18.596Z,97.00
2018-04-04T08:53:46.837Z,96.90
2018-04-04T08:56:15.086Z,97.70
2018-04-04T08:58:43.340Z,96.40
2018-04-04T09:01:11.635Z,96.30
2018-04-04T09:03:39.918Z,96.00
2018-04-04T09:06:08.219Z,96.40
2018-04-04T09:08:36.502Z,96.40
2018-04-04T09:11:04.784Z,96.00
2018-04-04T09:13:33.066Z,93.30
2018-04-04T09:16:01.353Z,91.90
2018-04-04T09:18:29.639Z,92.20
2018-04-04T09:20:57.914Z,90.20
2018-04-04T09:23:26.199Z,89.80
2018-04-04T09:25:54.482Z,86.60
2018-04-04T09:28:22.771Z,85.20
2018-04-04T09:30:51.048Z,83.40
2018-04-04T09:33:19.333Z,88.00
2018-04-04T09:35:48.386Z,91.50
2018-04-04T09:38:16.673Z,91.60
2018-04-04T09:40:44.948Z,94.50
2018-04-04T09:43:13.244Z,85.60
2018-04-04T09:45:41.527Z,94.10
2018-04-04T09:48:09.811Z,93.60
2018-04-04T09:50:38.082Z,92.70
2018-04-04T09:53:06.371Z,81.80
2018-04-04T09:55:35.415Z,92.30
2018-04-04T09:58:03.692Z,91.90
2018-04-04T10:00:38.180Z,95.00
2018-04-04T10:03:07.212Z,96.00
2018-04-04T10:05:35.513Z,95.90
2018-04-04T10:08:03.791Z,96.70
2018-04-04T10:10:32.080Z,96.90
2018-04-04T10:13:01.127Z,94.60
2018-04-04T10:15:29.413Z,94.50
2018-04-04T10:17:57.695Z,93.40
2018-04-04T10:20:25.989Z,93.70
2018-04-04T10:22:54.264Z,91.10
2018-04-04T10:25:22.544Z,90.00
2018-04-04T10:27:50.825Z,89.20
2018-04-04T10:30:19.117Z,90.40
2018-04-04T10:32:48.159Z,92.50
2018-04-04T10:35:17.212Z,93.80
2018-04-04T10:37:45.496Z,93.80
2018-04-04T10:40:13.783Z,92.80
2018-04-04T10:42:42.072Z,89.80
2018-04-04T10:45:10.372Z,90.00
2018-04-04T10:47:38.655Z,88.00
2018-04-04T10:50:06.955Z,86.90
2018-04-04T10:52:35.235Z,84.70
2018-04-04T10:55:03.525Z,84.20
2018-04-04T10:57:31.807Z,86.30
2018-04-04T11:00:00.095Z,84.00
2018-04-04T11:02:28.383Z,87.80
2018-04-04T11:04:56.668Z,84.00
2018-04-04T11:07:24.968Z,82.80
2018-04-04T11:09:53.244Z,79.10
2018-04-04T11:12:21.546Z,76.10
2018-04-04T11:14:50.588Z,66.10
2018-04-04T11:17:18.880Z,66.10
2018-04-04T11:19:47.172Z,63.00
2018-04-04T11:22:15.455Z,63.50
2018-04-04T11:24:43.736Z,62.80
2018-04-04T11:27:12.790Z,57.60
2018-04-04T11:29:41.836Z,55.20
2018-04-04T11:32:10.886Z,55.50
2018-04-04T11:34:39.981Z,55.40
2018-04-04T11:37:09.048Z,51.70
2018-04-04T11:39:37.333Z,51.70
2018-04-04T11:42:05.611Z,51.40
2018-04-04T11:44:33.884Z,51.40
2018-04-04T11:47:02.175Z,51.10
2018-04-04T11:49:30.449Z,49.50
2018-04-04T11:51:58.729Z,45.20
2018-04-04T11:54:27.004Z,44.30
2018-04-04T11:56:55.300Z,44.40
2018-04-04T11:59:23.575Z,44.40
2018-04-04T12:01:51.850Z,44.70
2018-04-04T12:04:20.147Z,44.50
2018-04-04T12:06:49.192Z,43.00
2018-04-04T12:09:17.471Z,43.00
2018-04-04T12:11:45.753Z,42.70
2018-04-04T12:14:14.048Z,43.40
2018-04-04T12:16:42.330Z,43.70
2018-04-04T12:19:10.616Z,41.80
2018-04-04T12:21:39.679Z,41.30
2018-04-04T12:24:07.981Z,41.30
2018-04-04T12:26:36.273Z,40.40
2018-04-04T12:29:05.342Z,40.40
2018-04-04T12:31:33.616Z,40.40
2018-04-04T12:34:01.916Z,39.20
2018-04-04T12:36:30.965Z,40.40
2018-04-04T12:38:59.252Z,40.40
2018-04-04T12:41:27.535Z,40.40
2018-04-04T12:43:55.837Z,39.60
2018-04-04T12:46:24.883Z,39.80
2018-04-04T12:48:53.164Z,39.70
2018-04-04T12:51:22.219Z,39.90
2018-04-04T12:53:50.499Z,39.80
2018-04-04T12:56:18.786Z,39.10
2018-04-04T12:58:47.095Z,39.00
2018-04-04T13:01:15.376Z,40.10
2018-04-04T13:03:43.652Z,37.70
2018-04-04T13:06:12.357Z,38.20
2018-04-04T13:08:40.647Z,38.40
2018-04-04T13:11:08.944Z,38.00
2018-04-04T13:13:37.219Z,38.30
2018-04-04T13:16:05.520Z,38.70
2018-04-04T13:18:33.809Z,39.40
2018-04-04T13:21:02.107Z,37.70
2018-04-04T13:23:31.174Z,38.30
2018-04-04T13:25:59.451Z,38.10
2018-04-04T13:28:27.742Z,37.80
2018-04-04T13:30:56.040Z,37.60
2018-04-04T13:33:24.318Z,38.00
2018-04-04T13:35:52.617Z,36.80
2018-04-04T13:38:20.895Z,36.80
2018-04-04T13:40:49.202Z,37.20
2018-04-04T13:43:17.488Z,38.70
2018-04-04T13:45:45.782Z,38.00
2018-04-04T13:48:14.071Z,37.80
2018-04-04T13:50:42.368Z,38.30
2018-04-04T13:53:10.657Z,37.70
2018-04-04T13:55:38.957Z,38.30
2018-04-04T13:58:07.254Z,38.90
2018-04-04T14:00:35.537Z,39.70
2018-04-04T14:03:03.824Z,39.60
2018-04-04T14:05:32.109Z,39.70
2018-04-04T14:08:00.405Z,40.40
2018-04-04T14:10:29.452Z,41.60
2018-04-04T14:12:57.741Z,41.60
2018-04-04T14:15:26.029Z,41.40
2018-04-04T14:17:54.320Z,41.30
2018-04-04T14:20:23.368Z,41.00
2018-04-04T14:22:51.663Z,40.90
2018-04-04T14:25:19.936Z,48.30
2018-04-04T14:27:48.232Z,91.30
2018-04-04T14:30:16.535Z,99.90
2018-04-04T14:32:44.847Z,99.90
2018-04-04T14:35:13.161Z,99.90
2018-04-04T14:37:42.238Z,99.90
2018-04-04T14:40:10.541Z,99.90
2018-04-04T14:42:39.617Z,99.90
2018-04-04T14:45:07.877Z,99.90
2018-04-04T14:47:36.158Z,99.90
2018-04-04T14:50:04.423Z,99.90
2018-04-04T14:52:32.690Z,99.90
2018-04-04T14:55:00.953Z,99.90
2018-04-04T14:57:29.217Z,99.90
2018-04-04T14:59:57.482Z,99.90
2018-04-04T15:02:25.749Z,99.90
2018-04-04T15:04:54.027Z,99.90
2018-04-04T15:07:22.290Z,99.90
2018-04-04T15:09:51.329Z,99.90
2018-04-04T15:12:19.594Z,99.90
2018-04-04T15:14:47.856Z,99.90
2018-04-04T15:17:16.126Z,99.90
2018-04-04T15:19:44.390Z,99.90
2018-04-04T15:22:13.419Z,99.90
2018-04-04T15:24:41.687Z,99.90
2018-04-04T15:27:09.946Z,99.90
2018-04-04T15:29:38.218Z,99.90
2018-04-04T15:32:06.481Z,99.90
2018-04-04T15:34:35.521Z,99.90
2018-04-04T15:37:03.785Z,99.90
2018-04-04T15:39:32.061Z,99.90
2018-04-04T15:42:00.321Z,99.90
2018-04-04T15:44:28.589Z,99.90
2018-04-04T15:46:56.854Z,99.90
2018-04-04T15:49:25.898Z,99.90
2018-04-04T15:51:54.156Z,99.90
2018-04-04T15:54:22.419Z,99.90
2018-04-04T15:56:50.683Z,99.90
2018-04-04T15:59:19.707Z,99.90
2018-04-04T16:01:47.978Z,99.90
2018-04-04T16:04:16.235Z,99.90
2018-04-04T16:06:44.498Z,99.90
2018-04-04T16:09:13.525Z,99.90
2018-04-04T16:11:41.797Z,99.90
2018-04-04T16:14:10.061Z,99.90
2018-04-04T16:16:38.330Z,99.90
2018-04-04T16:19:06.591Z,99.90
2018-04-04T16:21:35.621Z,99.90
2018-04-04T16:24:03.876Z,99.90
2018-04-04T16:26:32.149Z,99.90
2018-04-04T16:29:00.402Z,99.90
2018-04-04T16:31:29.433Z,99.90
2018-04-04T16:33:57.691Z,99.90
2018-04-04T16:36:25.953Z,99.90
2018-04-04T16:38:54.983Z,99.90
2018-04-04T16:41:23.245Z,99.90
2018-04-04T16:43:51.500Z,99.90
2018-04-04T16:46:19.776Z,99.90
2018-04-04T16:48:48.795Z,99.90
2018-04-04T16:51:17.073Z,99.90
2018-04-04T16:53:45.368Z,99.90
2018-04-04T16:56:13.627Z,99.90
2018-04-04T16:58:41.903Z,99.90
2018-04-04T17:01:10.171Z,99.90
2018-04-04T17:03:38.441Z,99.90
2018-04-04T17:06:06.715Z,99.90
2018-04-04T17:08:34.988Z,99.90
2018-04-04T17:11:03.249Z,99.90
2018-04-04T17:13:31.526Z,99.90
2018-04-04T17:16:00.566Z,99.90
2018-04-04T17:18:28.854Z,99.90
2018-04-04T17:20:57.118Z,99.90
2018-04-04T17:23:25.385Z,99.90
2018-04-04T17:25:53.654Z,99.90
2018-04-04T17:28:21.925Z,99.90
2018-04-04T17:30:50.194Z,99.90
2018-04-04T17:33:18.456Z,99.90
2018-04-04T17:35:46.722Z,99.90
2018-04-04T17:38:15.757Z,99.90
2018-04-04T17:40:44.018Z,99.90
2018-04-04T17:43:12.303Z,99.90
2018-04-04T17:45:40.558Z,99.90
2018-04-04T17:48:08.838Z,99.90
2018-04-04T17:50:37.106Z,99.90
2018-04-04T17:53:05.388Z,99.90
2018-04-04T17:55:33.646Z,99.90
2018-04-04T17:58:02.674Z,99.90
2018-04-04T18:00:30.956Z,99.90
2018-04-04T18:02:59.228Z,99.90
2018-04-04T18:05:27.517Z,99.90
2018-04-04T18:07:55.779Z,99.90
2018-04-04T18:10:24.057Z,99.90
2018-04-04T18:12:52.319Z,99.90
2018-04-04T18:15:20.589Z,99.90
2018-04-04T18:17:48.859Z,99.90
2018-04-04T18:20:17.886Z,99.90
2018-04-04T18:22:46.176Z,99.90
2018-04-04T18:25:14.417Z,99.90
2018-04-04T18:27:42.682Z,99.90
2018-04-04T18:30:10.954Z,99.90
2018-04-04T18:32:39.424Z,99.90
2018-04-04T18:35:08.517Z,99.90
2018-04-04T18:37:37.546Z,99.90
2018-04-04T18:40:05.834Z,99.90
2018-04-04T18:42:34.130Z,99.90
2018-04-04T18:45:02.366Z,99.90
2018-04-04T18:47:30.641Z,99.90
2018-04-04T18:49:59.022Z,99.90
2018-04-04T18:52:27.241Z,99.90
2018-04-04T18:54:55.519Z,99.90
2018-04-04T18:57:23.791Z,99.90
2018-04-04T18:59:52.064Z,99.90
2018-04-04T19:02:20.329Z,99.90
2018-04-04T19:04:48.592Z,99.90
2018-04-04T19:07:16.863Z,99.90
2018-04-04T19:09:45.127Z,99.90
2018-04-04T19:12:13.433Z,99.90
2018-04-04T19:14:41.703Z,99.90
2018-04-04T19:17:10.060Z,99.90
2018-04-04T19:19:38.323Z,99.90
2018-04-04T19:22:06.594Z,99.90
2018-04-04T19:24:34.857Z,99.90
2018-04-04T19:27:03.893Z,99.90
2018-04-04T19:29:32.158Z,99.90
2018-04-04T19:32:00.427Z,99.90
2018-04-04T19:34:28.704Z,99.90
2018-04-04T19:36:56.973Z,99.90
2018-04-04T19:39:25.244Z,99.90
2018-04-04T19:41:54.266Z,99.90
2018-04-04T19:44:22.524Z,99.90
2018-04-04T19:46:51.004Z,99.90
2018-04-04T19:49:19.293Z,99.90
2018-04-04T19:51:47.567Z,99.90
2018-04-04T19:54:15.830Z,99.90
2018-04-04T19:56:44.100Z,99.90
2018-04-04T19:59:12.359Z,99.90
2018-04-04T20:01:41.417Z,99.90
2018-04-04T20:04:09.702Z,99.90
2018-04-04T20:06:37.964Z,99.90
2018-04-04T20:09:06.227Z,99.90
2018-04-04T20:11:35.026Z,99.90
2018-04-04T20:14:03.341Z,99.90
2018-04-04T20:16:31.602Z,99.90
2018-04-04T20:18:59.865Z,99.90
2018-04-04T20:21:28.128Z,99.90
2018-04-04T20:23:56.411Z,99.90
2018-04-04T20:26:24.707Z,99.90
2018-04-04T20:28:52.986Z,99.90
2018-04-04T20:31:22.009Z,99.90
2018-04-04T20:33:50.281Z,99.90
2018-04-04T20:36:18.585Z,99.90
2018-04-04T20:38:47.581Z,99.90
2018-04-04T20:41:15.838Z,99.90
2018-04-04T20:43:44.112Z,99.90
2018-04-04T20:46:13.054Z,99.90
2018-04-04T20:48:41.327Z,99.90
2018-04-04T20:51:09.659Z,99.90
2018-04-04T20:53:37.853Z,99.90
2018-04-04T20:56:06.214Z,99.90
2018-04-04T20:58:34.494Z,99.90
2018-04-04T21:01:02.762Z,99.90
2018-04-04T21:03:31.029Z,99.90
2018-04-04T21:05:59.288Z,99.90
2018-04-04T21:08:28.324Z,99.90
2018-04-04T21:10:56.589Z,99.90
2018-04-04T21:13:24.886Z,99.90
2018-04-04T21:15:53.150Z,99.90
2018-04-04T21:18:21.413Z,99.90
2018-04-04T21:20:49.784Z,99.90
2018-04-04T21:23:18.044Z,99.90
2018-04-04T21:25:47.078Z,99.90
2018-04-04T21:28:15.339Z,99.90
2018-04-04T21:30:43.602Z,99.90
2018-04-04T21:33:11.980Z,99.90
2018-04-04T21:35:40.262Z,99.90
2018-04-04T21:38:08.526Z,99.90
2018-04-04T21:40:37.001Z,99.90
2018-04-04T21:43:05.422Z,99.90
2018-04-04T21:45:34.334Z,99.90
2018-04-04T21:48:02.641Z,99.90
2018-04-04T21:50:30.953Z,99.90
2018-04-04T21:52:59.212Z,99.90
2018-04-04T21:55:27.547Z,99.90
2018-04-04T21:57:55.861Z,99.90
2018-04-04T22:00:24.223Z,99.90
2018-04-04T22:02:53.256Z,99.90
2018-04-04T22:05:21.520Z,99.90
2018-04-04T22:07:49.788Z,99.90
2018-04-04T22:10:18.050Z,99.90
2018-04-04T22:12:47.076Z,99.90
2018-04-04T22:15:15.351Z,99.90
2018-04-04T22:17:43.601Z,99.90
2018-04-04T22:20:12.634Z,99.90
2018-04-04T22:22:40.894Z,99.90
2018-04-04T22:25:09.162Z,99.90
2018-04-04T22:27:37.462Z,99.90
2018-04-04T22:30:05.763Z,99.90
2018-04-04T22:32:34.060Z,99.90
2018-04-04T22:35:02.365Z,99.90
2018-04-04T22:37:30.660Z,99.90
2018-04-04T22:39:58.952Z,99.90
2018-04-04T22:42:27.252Z,99.90
2018-04-04T22:44:55.548Z,99.90
2018-04-04T22:47:24.580Z,99.90
2018-04-04T22:49:52.842Z,99.90
2018-04-04T22:52:21.118Z,99.90
2018-04-04T22:54:49.370Z,99.90
2018-04-04T22:57:18.444Z,99.90
2018-04-04T22:59:46.739Z,99.90
2018-04-04T23:02:15.808Z,99.90
2018-04-04T23:04:44.105Z,99.90
2018-04-04T23:07:13.175Z,99.90
2018-04-04T23:09:41.468Z,99.90
2018-04-04T23:12:09.775Z,99.90
2018-04-04T23:14:38.840Z,99.90
2018-04-04T23:17:07.140Z,99.90
2018-04-04T23:19:36.201Z,99.90
2018-04-04T23:22:04.498Z,99.90
2018-04-04T23:24:33.571Z,99.90
2018-04-04T23:27:01.932Z,99.90
2018-04-04T23:29:30.225Z,99.90
2018-04-04T23:31:58.531Z,99.90
2018-04-04T23:34:27.593Z,99.90
2018-04-04T23:36:55.884Z,99.90
2018-04-04T23:39:24.179Z,99.90
2018-04-04T23:41:53.238Z,99.90
2018-04-04T23:44:21.532Z,99.90
2018-04-04T23:46:49.829Z,99.90
2018-04-04T23:49:18.892Z,99.90
2018-04-04T23:51:47.188Z,99.90
2018-04-04T23:54:16.256Z,99.90
2018-04-04T23:56:44.548Z,99.90
2018-04-04T23:59:12.850Z,99.90
